createdAt,value
2022-08-31T00:01:03.386Z,101261.67
2022-08-31T00:03:53.638Z,101262.34
2022-08-31T00:06:26.102Z,101263.31
2022-08-31T00:08:58.371Z,101259.05
2022-08-31T00:11:31.914Z,101259.73
2022-08-31T00:14:08.261Z,101256.27
2022-08-31T00:16:47.618Z,101257.55
2022-08-31T00:19:20.127Z,101255.23
2022-08-31T00:21:52.255Z,101261.34
2022-08-31T00:24:24.467Z,101265.45
2022-08-31T00:26:56.624Z,101263.13
2022-08-31T00:29:28.741Z,101266.65
2022-08-31T00:32:01.516Z,101267.30
2022-08-31T00:34:33.807Z,101265.95
2022-08-31T00:37:06.192Z,101269.65
2022-08-31T00:39:38.623Z,101267.13
2022-08-31T00:42:12.513Z,101264.88
2022-08-31T00:44:44.935Z,101264.86
2022-08-31T00:47:17.093Z,101268.17
2022-08-31T00:49:51.533Z,101270.02
2022-08-31T00:52:26.940Z,101270.41
2022-08-31T00:55:11.211Z,101265.91
2022-08-31T00:57:47.184Z,101267.52
2022-08-31T01:00:23.693Z,101264.29
2022-08-31T01:02:56.921Z,101266.86
2022-08-31T01:05:30.176Z,101268.55
2022-08-31T01:08:04.591Z,101265.23
2022-08-31T01:10:41.377Z,101265.71
2022-08-31T01:13:15.198Z,101263.30
2022-08-31T01:15:54.127Z,101260.47
2022-08-31T01:18:27.048Z,101253.64
2022-08-31T01:21:05.865Z,101255.07
2022-08-31T01:23:42.852Z,101262.61
2022-08-31T01:26:18.922Z,101261.00
2022-08-31T01:28:54.278Z,101262.92
2022-08-31T01:31:29.529Z,101259.23
2022-08-31T01:34:01.837Z,101258.02
2022-08-31T01:36:36.024Z,101255.59
2022-08-31T01:39:10.192Z,101257.85
2022-08-31T01:41:44.273Z,101259.92
2022-08-31T01:44:19.508Z,101258.60
2022-08-31T01:46:52.252Z,101259.14
2022-08-31T01:49:25.830Z,101261.45
2022-08-31T01:51:58.157Z,101264.41
2022-08-31T01:54:30.375Z,101267.06
2022-08-31T01:57:03.273Z,101270.91
2022-08-31T02:00:08.341Z,101268.48
2022-08-31T02:02:46.413Z,101274.74
2022-08-31T02:05:19.486Z,101273.69
2022-08-31T02:07:51.999Z,101270.36
2022-08-31T02:10:24.994Z,101272.39
2022-08-31T02:12:57.598Z,101274.88
2022-08-31T02:15:35.823Z,101271.98
2022-08-31T02:18:08.388Z,101269.16
2022-08-31T02:20:40.614Z,101268.67
2022-08-31T02:23:13.106Z,101272.92
2022-08-31T02:25:45.251Z,101257.37
2022-08-31T02:28:18.959Z,101272.58
2022-08-31T02:30:51.725Z,101275.55
2022-08-31T02:33:25.476Z,101272.08
2022-08-31T02:35:58.082Z,101270.88
2022-08-31T02:38:31.832Z,101271.02
2022-08-31T02:41:04.854Z,101266.25
2022-08-31T02:43:37.552Z,101255.35
2022-08-31T02:46:10.011Z,101266.64
2022-08-31T02:48:47.007Z,101265.45
2022-08-31T02:51:22.064Z,101265.36
2022-08-31T02:53:54.084Z,101266.88
2022-08-31T02:56:26.933Z,101266.63
2022-08-31T02:58:59.305Z,101247.23
2022-08-31T03:01:31.783Z,101261.34
2022-08-31T03:04:05.349Z,101262.38
2022-08-31T03:06:37.849Z,101262.54
2022-08-31T03:09:10.038Z,101249.17
2022-08-31T03:11:42.464Z,101264.95
2022-08-31T03:14:15.281Z,101267.27
2022-08-31T03:16:47.483Z,101266.30
2022-08-31T03:19:25.484Z,101265.01
2022-08-31T03:21:57.507Z,101262.77
2022-08-31T03:24:32.384Z,101276.09
2022-08-31T03:27:04.622Z,101273.89
2022-08-31T03:29:36.969Z,101273.48
2022-08-31T03:32:23.762Z,101271.64
2022-08-31T03:34:58.276Z,101254.55
2022-08-31T03:37:30.365Z,101266.31
2022-08-31T03:40:05.191Z,101268.33
2022-08-31T03:42:38.468Z,101273.44
2022-08-31T03:45:12.968Z,101271.97
2022-08-31T03:47:45.872Z,101272.48
2022-08-31T03:50:19.007Z,101279.46
2022-08-31T03:52:57.323Z,101275.05
2022-08-31T03:55:29.459Z,101275.85
2022-08-31T03:58:02.131Z,101277.30
2022-08-31T04:00:36.395Z,101278.41
2022-08-31T04:03:10.552Z,101274.30
2022-08-31T04:06:01.211Z,101276.05
2022-08-31T04:08:51.937Z,101277.34
2022-08-31T04:11:57.921Z,101281.50
2022-08-31T04:14:49.474Z,101283.84
2022-08-31T04:17:48.749Z,101281.02
2022-08-31T04:20:42.972Z,101284.45
2022-08-31T04:23:15.274Z,101285.98
2022-08-31T04:25:54.349Z,101288.07
2022-08-31T04:28:26.748Z,101286.38
2022-08-31T04:30:58.998Z,101290.61
2022-08-31T04:33:31.066Z,101288.92
2022-08-31T04:36:05.717Z,101293.64
2022-08-31T04:38:39.492Z,101288.69
2022-08-31T04:41:13.305Z,101290.98
2022-08-31T04:43:50.487Z,101290.10
2022-08-31T04:46:24.020Z,101288.92
2022-08-31T04:48:56.680Z,101287.72
2022-08-31T04:51:31.168Z,101262.40
2022-08-31T04:54:04.122Z,101281.30
2022-08-31T04:56:39.991Z,101283.33
2022-08-31T04:59:15.153Z,101274.60
2022-08-31T05:02:00.621Z,101285.24
2022-08-31T05:04:35.479Z,101287.80
2022-08-31T05:07:09.671Z,101280.73
2022-08-31T05:09:40.925Z,101285.61
2022-08-31T05:12:13.640Z,101284.27
2022-08-31T05:14:46.227Z,101271.15
2022-08-31T05:17:25.304Z,101272.13
2022-08-31T05:19:57.995Z,101288.89
2022-08-31T05:22:31.729Z,101289.27
2022-08-31T05:25:07.176Z,101287.13
2022-08-31T05:27:39.954Z,101290.30
2022-08-31T05:30:15.797Z,101292.40
2022-08-31T05:32:59.175Z,101278.46
2022-08-31T05:35:32.132Z,101296.85
2022-08-31T05:38:04.466Z,101297.12
2022-08-31T05:40:37.089Z,101296.95
2022-08-31T05:43:09.558Z,101300.09
2022-08-31T05:45:46.275Z,101296.70
2022-08-31T05:48:19.601Z,101304.77
2022-08-31T05:50:52.083Z,101310.67
2022-08-31T05:53:25.197Z,101312.38
2022-08-31T05:56:03.392Z,101311.91
2022-08-31T05:58:36.360Z,101316.99
2022-08-31T06:01:17.017Z,101322.16
2022-08-31T06:04:10.591Z,101319.05
2022-08-31T06:06:42.785Z,101323.23
2022-08-31T06:09:15.979Z,101331.36
2022-08-31T06:11:51.375Z,101329.55
2022-08-31T06:14:23.887Z,101332.38
2022-08-31T06:16:56.816Z,101333.20
2022-08-31T06:19:29.737Z,101337.88
2022-08-31T06:22:02.313Z,101333.33
2022-08-31T06:24:37.098Z,101337.77
2022-08-31T06:27:10.413Z,101340.10
2022-08-31T06:29:43.380Z,101341.12
2022-08-31T06:32:15.811Z,101344.29
2022-08-31T06:35:09.586Z,101346.56
2022-08-31T06:38:06.920Z,101348.04
2022-08-31T06:41:16.102Z,101341.30
2022-08-31T06:44:13.911Z,101343.83
2022-08-31T06:47:03.197Z,101342.55
2022-08-31T06:49:38.985Z,101348.21
2022-08-31T06:52:11.311Z,101347.83
2022-08-31T06:54:44.691Z,101349.04
2022-08-31T06:57:52.682Z,101341.16
2022-08-31T07:00:27.519Z,101351.40
2022-08-31T07:03:24.285Z,101351.91
2022-08-31T07:05:57.902Z,101327.52
2022-08-31T07:08:30.135Z,101357.02
2022-08-31T07:11:03.207Z,101352.83
2022-08-31T07:13:36.198Z,101352.73
2022-08-31T07:16:11.591Z,101350.48
2022-08-31T07:18:45.688Z,101354.35
2022-08-31T07:21:21.478Z,101357.41
2022-08-31T07:23:54.948Z,101358.63
2022-08-31T07:26:33.363Z,101355.46
2022-08-31T07:29:10.086Z,101360.38
2022-08-31T07:31:46.490Z,101369.07
2022-08-31T07:34:25.975Z,101363.66
2022-08-31T07:37:47.891Z,101363.16
2022-08-31T07:40:38.286Z,101366.32
2022-08-31T07:43:14.401Z,101365.10
2022-08-31T07:45:47.356Z,101368.52
2022-08-31T07:48:27.354Z,101367.91
2022-08-31T07:51:23.651Z,101373.70
2022-08-31T07:54:14.513Z,101374.62
2022-08-31T07:57:03.344Z,101371.11
2022-08-31T07:59:37.310Z,101375.66
2022-08-31T08:02:15.229Z,101378.30
2022-08-31T08:04:54.010Z,101381.85
2022-08-31T08:08:09.421Z,101371.55
2022-08-31T08:11:09.572Z,101377.48
2022-08-31T08:13:41.686Z,101371.65
2022-08-31T08:16:23.523Z,101372.58
2022-08-31T08:19:11.916Z,101378.44
2022-08-31T08:21:46.245Z,101375.48
2022-08-31T08:24:19.736Z,101370.76
2022-08-31T08:27:11.850Z,101371.13
2022-08-31T08:30:00.415Z,101375.55
2022-08-31T08:32:35.384Z,101375.23
2022-08-31T08:35:10.022Z,101370.05
2022-08-31T08:37:58.377Z,101370.02
2022-08-31T08:40:39.630Z,101361.61
2022-08-31T08:43:16.271Z,101373.91
2022-08-31T08:45:53.282Z,101376.21
2022-08-31T08:48:32.853Z,101373.77
2022-08-31T08:51:10.693Z,101377.56
2022-08-31T08:53:58.309Z,101366.21
2022-08-31T08:56:36.553Z,101375.81
2022-08-31T08:59:12.118Z,101379.36
2022-08-31T09:01:49.000Z,101379.48
2022-08-31T09:04:37.202Z,101375.90
2022-08-31T09:07:31.127Z,101386.08
2022-08-31T09:10:13.501Z,101382.95
2022-08-31T09:12:53.770Z,101382.34
2022-08-31T09:15:53.131Z,101382.69
2022-08-31T09:18:41.347Z,101380.98
2022-08-31T09:21:22.101Z,101382.84
2022-08-31T09:24:02.740Z,101376.33
2022-08-31T09:27:02.280Z,101359.64
2022-08-31T09:29:45.147Z,101372.83
2022-08-31T09:32:24.718Z,101373.89
2022-08-31T09:35:01.675Z,101375.14
2022-08-31T09:37:46.437Z,101375.63
2022-08-31T09:40:23.986Z,101376.55
2022-08-31T09:43:08.741Z,101378.97
2022-08-31T09:45:56.227Z,101378.81
2022-08-31T09:48:52.292Z,101376.81
2022-08-31T09:51:28.325Z,101376.52
2022-08-31T09:54:26.945Z,101381.63
2022-08-31T09:57:01.286Z,101381.45
2022-08-31T09:59:38.619Z,101379.65
2022-08-31T10:02:13.857Z,101381.52
2022-08-31T10:04:54.612Z,101378.20
2022-08-31T10:07:39.183Z,101375.19
2022-08-31T10:10:28.241Z,101366.14
2022-08-31T10:13:06.775Z,101367.84
2022-08-31T10:15:44.146Z,101362.06
2022-08-31T10:18:21.710Z,101353.08
2022-08-31T10:20:59.657Z,101353.92
2022-08-31T10:23:37.135Z,101344.70
2022-08-31T10:26:16.695Z,101344.90
2022-08-31T10:28:55.314Z,101336.95
2022-08-31T10:31:36.882Z,101335.46
2022-08-31T10:34:30.738Z,101324.52
2022-08-31T10:37:09.957Z,101339.55
2022-08-31T10:39:47.272Z,101336.98
2022-08-31T10:42:25.720Z,101336.37
2022-08-31T10:45:03.621Z,101336.42
2022-08-31T10:47:41.584Z,101328.14
2022-08-31T10:50:19.523Z,101329.10
2022-08-31T10:53:02.517Z,101325.59
2022-08-31T10:55:46.893Z,101325.73
2022-08-31T10:58:27.931Z,101323.05
2022-08-31T11:01:07.925Z,101325.48
2022-08-31T11:03:57.636Z,101326.42
2022-08-31T11:06:39.853Z,101326.36
2022-08-31T11:09:20.501Z,101328.63
2022-08-31T11:11:58.336Z,101329.45
2022-08-31T11:15:14.818Z,101322.96
2022-08-31T11:18:04.961Z,101317.23
2022-08-31T11:20:58.674Z,101316.98
2022-08-31T11:23:56.778Z,101314.68
2022-08-31T11:26:52.986Z,101315.23
2022-08-31T11:29:37.746Z,101313.15
2022-08-31T11:32:20.092Z,101315.46
2022-08-31T11:34:55.218Z,101315.52
2022-08-31T11:37:52.964Z,101312.98
2022-08-31T11:41:11.292Z,101315.08
2022-08-31T11:43:52.456Z,101305.13
2022-08-31T11:47:04.355Z,101304.39
2022-08-31T11:49:43.832Z,101302.39
2022-08-31T11:52:48.555Z,101305.05
2022-08-31T11:55:49.333Z,101296.87
2022-08-31T11:58:31.801Z,101302.83
2022-08-31T12:01:09.721Z,101300.38
2022-08-31T12:03:51.502Z,101290.15
2022-08-31T12:07:11.135Z,101289.82
2022-08-31T12:10:15.078Z,101290.73
2022-08-31T12:13:19.615Z,101291.63
2022-08-31T12:16:05.098Z,101284.17
2022-08-31T12:19:00.908Z,101291.14
2022-08-31T12:22:01.242Z,101290.65
2022-08-31T12:24:39.161Z,101290.17
2022-08-31T12:27:33.327Z,101288.98
2022-08-31T12:30:22.599Z,101285.81
2022-08-31T12:33:03.280Z,101283.05
2022-08-31T12:35:36.502Z,101283.77
2022-08-31T12:38:11.349Z,101281.83
2022-08-31T12:40:48.292Z,101281.54
2022-08-31T12:43:24.656Z,101280.47
2022-08-31T12:46:22.012Z,101279.59
2022-08-31T12:49:21.777Z,101283.15
2022-08-31T12:52:01.380Z,101279.29
2022-08-31T12:54:53.848Z,101279.98
2022-08-31T12:57:42.961Z,101280.87
2022-08-31T13:00:21.762Z,101282.93
2022-08-31T13:02:56.986Z,101281.44
2022-08-31T13:05:32.574Z,101279.61
2022-08-31T13:08:22.738Z,101271.63
2022-08-31T13:10:55.458Z,101272.98
2022-08-31T13:13:30.474Z,101273.81
2022-08-31T13:16:05.342Z,101271.20
2022-08-31T13:18:38.306Z,101268.91
2022-08-31T13:21:11.207Z,101268.34
2022-08-31T13:23:46.641Z,101269.40
2022-08-31T13:26:23.083Z,101270.26
2022-08-31T13:28:58.582Z,101271.48
2022-08-31T13:31:33.233Z,101270.48
2022-08-31T13:34:05.399Z,101269.02
2022-08-31T13:36:44.234Z,101252.34
2022-08-31T13:39:22.502Z,101262.95
2022-08-31T13:42:06.020Z,101266.95
2022-08-31T13:44:44.398Z,101265.46
2022-08-31T13:47:21.431Z,101261.80
2022-08-31T13:50:05.205Z,101260.73
2022-08-31T13:52:39.079Z,101254.98
2022-08-31T13:55:14.192Z,101257.77
2022-08-31T13:58:00.308Z,101256.98
2022-08-31T14:00:46.045Z,101251.16
2022-08-31T14:03:33.311Z,101250.02
2022-08-31T14:06:24.115Z,101253.04
2022-08-31T14:09:03.773Z,101254.32
2022-08-31T14:11:37.282Z,101249.17
2022-08-31T14:14:12.896Z,101249.88
2022-08-31T14:16:52.109Z,101249.64
2022-08-31T14:19:34.373Z,101250.31
2022-08-31T14:22:28.658Z,101246.76
2022-08-31T14:25:02.767Z,101246.25
2022-08-31T14:27:43.178Z,101241.98
2022-08-31T14:30:15.859Z,101243.95
2022-08-31T14:32:47.942Z,101246.99
2022-08-31T14:35:26.434Z,101245.20
2022-08-31T14:37:58.554Z,101247.42
2022-08-31T14:40:31.614Z,101247.98
2022-08-31T14:43:04.464Z,101251.30
2022-08-31T14:45:37.751Z,101248.80
2022-08-31T14:48:10.981Z,101246.73
2022-08-31T14:50:43.769Z,101249.58
2022-08-31T14:53:17.290Z,101246.92
2022-08-31T14:55:49.642Z,101247.64
2022-08-31T14:58:23.993Z,101212.93
2022-08-31T15:00:58.313Z,101243.62
2022-08-31T15:03:33.215Z,101237.87
2022-08-31T15:06:06.215Z,101237.98
2022-08-31T15:08:40.899Z,101241.19
2022-08-31T15:11:13.854Z,101242.63
2022-08-31T15:13:47.406Z,101243.95
2022-08-31T15:16:19.618Z,101241.18
2022-08-31T15:18:56.359Z,101241.14
2022-08-31T15:21:29.445Z,101241.16
2022-08-31T15:24:01.706Z,101241.51
2022-08-31T15:26:34.399Z,101236.59
2022-08-31T15:29:06.604Z,101233.30
2022-08-31T15:31:49.759Z,101236.39
2022-08-31T15:34:27.128Z,101235.36
2022-08-31T15:37:02.298Z,101236.52
2022-08-31T15:39:36.993Z,101235.58
2022-08-31T15:42:11.452Z,101234.52
2022-08-31T15:44:45.903Z,101232.17
2022-08-31T15:47:35.754Z,101229.60
2022-08-31T15:50:09.338Z,101230.95
2022-08-31T15:52:43.963Z,101214.28
2022-08-31T15:55:26.707Z,101222.81
2022-08-31T15:58:03.337Z,101225.67
2022-08-31T16:00:36.640Z,101219.27
2022-08-31T16:03:08.777Z,101210.55
2022-08-31T16:05:43.614Z,101217.44
2022-08-31T16:08:16.329Z,101220.51
2022-08-31T16:10:49.575Z,101219.67
2022-08-31T16:13:22.273Z,101211.73
2022-08-31T16:15:54.984Z,101209.70
2022-08-31T16:18:27.515Z,101204.64
2022-08-31T16:21:07.617Z,101203.08
2022-08-31T16:23:39.772Z,101198.56
2022-08-31T16:26:13.121Z,101203.36
2022-08-31T16:28:45.549Z,101191.38
2022-08-31T16:31:17.778Z,101200.41
2022-08-31T16:33:50.207Z,101195.41
2022-08-31T16:36:23.455Z,101194.71
2022-08-31T16:38:56.695Z,101199.05
2022-08-31T16:41:30.697Z,101199.04
2022-08-31T16:44:18.813Z,101205.70
2022-08-31T16:46:52.430Z,101199.75
2022-08-31T16:49:40.364Z,101190.91
2022-08-31T16:52:14.804Z,101188.38
2022-08-31T16:54:49.186Z,101185.31
2022-08-31T16:57:26.257Z,101187.60
2022-08-31T17:00:00.510Z,101194.96
2022-08-31T17:02:33.686Z,101194.48
2022-08-31T17:05:06.310Z,101195.30
2022-08-31T17:07:42.834Z,101196.39
2022-08-31T17:10:15.099Z,101200.05
2022-08-31T17:12:48.393Z,101199.38
2022-08-31T17:15:24.084Z,101202.00
2022-08-31T17:17:57.924Z,101205.13
2022-08-31T17:20:31.322Z,101205.14
2022-08-31T17:23:03.481Z,101202.92
2022-08-31T17:25:37.218Z,101203.68
2022-08-31T17:28:09.309Z,101208.39
2022-08-31T17:30:44.972Z,101205.27
2022-08-31T17:33:18.130Z,101208.48
2022-08-31T17:35:50.562Z,101213.07
2022-08-31T17:38:22.688Z,101217.70
2022-08-31T17:40:56.173Z,101219.05
2022-08-31T17:43:28.464Z,101219.94
2022-08-31T17:46:06.345Z,101223.59
2022-08-31T17:48:39.526Z,101224.63
2022-08-31T17:51:27.409Z,101234.30
2022-08-31T17:54:01.944Z,101231.34
2022-08-31T17:56:47.601Z,101238.41
2022-08-31T17:59:22.820Z,101237.97
2022-08-31T18:01:58.595Z,101240.61
2022-08-31T18:04:34.205Z,101241.08
2022-08-31T18:07:09.207Z,101243.20
2022-08-31T18:09:44.165Z,101243.05
2022-08-31T18:12:18.216Z,101232.13
2022-08-31T18:14:50.541Z,101246.77
2022-08-31T18:17:23.438Z,101250.20
2022-08-31T18:19:56.393Z,101252.80
2022-08-31T18:22:29.132Z,101256.77
2022-08-31T18:25:01.260Z,101256.81
2022-08-31T18:27:33.545Z,101257.34
2022-08-31T18:30:07.179Z,101254.09
2022-08-31T18:32:39.315Z,101256.95
2022-08-31T18:35:20.187Z,101257.05
2022-08-31T18:37:52.685Z,101259.51
2022-08-31T18:40:43.652Z,101255.58
2022-08-31T18:43:33.441Z,101256.69
2022-08-31T18:46:05.575Z,101260.33
2022-08-31T18:48:37.913Z,101262.79
2022-08-31T18:51:13.633Z,101262.52
2022-08-31T18:53:48.597Z,101260.09
2022-08-31T18:56:21.017Z,101261.67
2022-08-31T18:58:53.793Z,101263.89
2022-08-31T19:01:28.501Z,101265.23
2022-08-31T19:04:07.218Z,101268.09
2022-08-31T19:06:43.042Z,101268.14
2022-08-31T19:09:15.619Z,101274.71
2022-08-31T19:11:51.358Z,101270.64
2022-08-31T19:14:26.371Z,101253.88
2022-08-31T19:17:01.367Z,101273.13
2022-08-31T19:19:37.688Z,101275.64
2022-08-31T19:22:11.206Z,101280.20
2022-08-31T19:24:43.701Z,101280.14
2022-08-31T19:27:16.532Z,101278.00
2022-08-31T19:29:49.158Z,101281.66
2022-08-31T19:32:21.697Z,101281.45
2022-08-31T19:34:54.262Z,101279.61
2022-08-31T19:37:27.806Z,101281.40
2022-08-31T19:40:00.758Z,101282.40
2022-08-31T19:45:42.431Z,101279.48
2022-08-31T19:48:17.204Z,101286.56
2022-08-31T19:50:50.169Z,101289.17
2022-08-31T19:53:23.148Z,101287.27
2022-08-31T19:55:57.506Z,101286.37
2022-08-31T19:58:29.915Z,101284.38
2022-08-31T20:01:07.009Z,101283.98
2022-08-31T20:03:39.389Z,101283.74
2022-08-31T20:06:14.631Z,101284.39
2022-08-31T20:08:47.535Z,101285.70
2022-08-31T20:11:22.181Z,101283.45
2022-08-31T20:13:55.223Z,101288.75
2022-08-31T20:16:33.591Z,101274.60
2022-08-31T20:19:08.282Z,101291.11
2022-08-31T20:21:42.311Z,101291.61
2022-08-31T20:24:16.615Z,101296.94
2022-08-31T20:26:51.762Z,101300.50
2022-08-31T20:29:25.003Z,101297.20
2022-08-31T20:31:58.191Z,101296.90
2022-08-31T20:34:30.658Z,101293.03
2022-08-31T20:37:03.516Z,101291.11
2022-08-31T20:39:37.360Z,101294.10
2022-08-31T20:42:10.091Z,101297.33
2022-08-31T20:44:48.895Z,101298.37
2022-08-31T20:47:48.302Z,101302.09
2022-08-31T20:50:20.898Z,101302.41
2022-08-31T20:52:53.623Z,101297.98
2022-08-31T20:55:26.097Z,101303.86
2022-08-31T20:57:58.507Z,101303.38
2022-08-31T21:00:32.724Z,101305.55
2022-08-31T21:03:05.693Z,101309.66
2022-08-31T21:05:39.199Z,101312.08
2022-08-31T21:08:12.702Z,101310.95
2022-08-31T21:10:44.983Z,101312.32
2022-08-31T21:13:17.067Z,101311.20
2022-08-31T21:15:50.643Z,101317.69
2022-08-31T21:18:24.037Z,101316.86
2022-08-31T21:21:01.058Z,101320.73
2022-08-31T21:23:33.514Z,101317.59
2022-08-31T21:26:07.677Z,101324.27
2022-08-31T21:28:39.988Z,101327.57
2022-08-31T21:31:18.329Z,101322.48
2022-08-31T21:34:01.463Z,101319.91
2022-08-31T21:36:35.990Z,101321.44
2022-08-31T21:39:11.604Z,101318.55
2022-08-31T21:41:45.172Z,101314.17
2022-08-31T21:44:21.433Z,101318.77
2022-08-31T21:46:53.642Z,101319.65
2022-08-31T21:49:25.941Z,101320.77
2022-08-31T21:51:59.872Z,101324.06
2022-08-31T21:54:32.388Z,101325.98
2022-08-31T21:57:05.695Z,101331.86
2022-08-31T21:59:39.013Z,101326.38
2022-08-31T22:02:13.984Z,101325.97
2022-08-31T22:04:46.910Z,101320.56
2022-08-31T22:07:19.088Z,101318.86
2022-08-31T22:09:51.242Z,101317.09
2022-08-31T22:12:25.288Z,101315.39
2022-08-31T22:14:58.855Z,101317.38
2022-08-31T22:17:55.787Z,101316.81
2022-08-31T22:20:23.855Z,101322.59
2022-08-31T22:22:57.160Z,101321.13
2022-08-31T22:25:30.421Z,101322.98
2022-08-31T22:28:07.469Z,101317.98
2022-08-31T22:30:39.751Z,101326.09
2022-08-31T22:33:12.154Z,101321.42
2022-08-31T22:35:44.536Z,101320.02
2022-08-31T22:38:19.083Z,101322.72
2022-08-31T22:40:51.784Z,101320.78
2022-08-31T22:43:24.111Z,101319.08
2022-08-31T22:45:56.241Z,101315.43
2022-08-31T22:48:28.445Z,101318.73
2022-08-31T22:51:05.700Z,101321.77
2022-08-31T22:53:37.796Z,101303.14
2022-08-31T22:56:16.476Z,101318.27
2022-08-31T22:58:51.058Z,101302.96
2022-08-31T23:01:26.814Z,101309.98
2022-08-31T23:04:01.185Z,101311.98
2022-08-31T23:06:35.771Z,101309.64
2022-08-31T23:09:11.226Z,101306.64
2022-08-31T23:11:43.491Z,101307.02
2022-08-31T23:14:15.736Z,101305.23
2022-08-31T23:16:57.205Z,101308.14
2022-08-31T23:19:33.055Z,101311.50
2022-08-31T23:22:07.636Z,101316.97
2022-08-31T23:24:44.744Z,101316.23
2022-08-31T23:27:20.039Z,101316.77
2022-08-31T23:29:56.031Z,101314.29
2022-08-31T23:32:30.930Z,101308.53
2022-08-31T23:35:03.125Z,101311.77
2022-08-31T23:37:35.355Z,101313.04
2022-08-31T23:40:10.273Z,101313.59
2022-08-31T23:42:43.646Z,101314.88
2022-08-31T23:45:16.311Z,101316.37
2022-08-31T23:47:48.452Z,101314.91
2022-08-31T23:50:20.767Z,101315.91
2022-08-31T23:52:53.444Z,101316.38
2022-08-31T23:55:31.315Z,101315.16
2022-08-31T23:58:04.359Z,101310.00
